PWSweather.com
Personal Weather Stations
Station Observations

MakarauRodneyNZ

Lat: -36.52421, Lon: 174.47572

Elevation: 606

Station Type: Davis VP2

http://kaiparaweather.dynu.net/index.php

High Low Average
Temperature 67.1°F19.5°C 60.0°F15.6°C 62.7°F17.1°C
Dew Point 62.9°F17.2°C 57.7°F14.3°C 60.0°F15.6°C
Winds 13.8 mph 22.2 kmh Calm Calm 8.0 mph SW12.9 kmh SW
Wind Gusts 18.4 mph29.6 kmh -- 11.0 mph17.7 kmh
Humidity 94% 86% 91%
Pressure 29.69 in1005.4 mb 29.57 in1001.4 mb -
Precipitation 0.02 in0.5 mm - -
Hour Temp Dew Point Humidity Winds Wind Gusts Pressure Precip Precip Rate Daily Precip Total
12:00 AM 60.9°F16.1°C 60.3°F15.7°C 98% 13.8 mph SSW22.2 kmh SSW 18.4 mph29.6 kmh 29.58 in1001.7 mb - 0.00 in0.0 mm 0.00 in0.0 mm
12:10 AM 60.9°F16.1°C 60.3°F15.7°C 98% 10.4 mph SSW16.7 kmh SSW 15.0 mph24.1 kmh 29.58 in1001.7 mb - 0.00 in0.0 mm 0.00 in0.0 mm
12:20 AM 61.0°F16.1°C 60.4°F15.8°C 98% 6.9 mph SW11.1 kmh SW 13.8 mph22.2 kmh 29.59 in1002.0 mb - 0.00 in0.0 mm 0.00 in0.0 mm
12:30 AM 60.8°F16.0°C 60.2°F15.7°C 98% 8.1 mph SSW13.0 kmh SSW 15.0 mph24.1 kmh 29.59 in1002.0 mb - 0.01 in0.3 mm 0.01 in0.3 mm
12:40 AM 60.6°F15.9°C 60.0°F15.6°C 98% 8.1 mph SW13.0 kmh SW 13.8 mph22.2 kmh 29.59 in1002.0 mb - 0.00 in0.0 mm 0.01 in0.3 mm
12:50 AM 60.5°F15.8°C 59.9°F15.5°C 98% 6.9 mph SW11.1 kmh SW 11.5 mph18.5 kmh 29.59 in1002.0 mb - 0.00 in0.0 mm 0.01 in0.3 mm
01:00 AM 60.3°F15.7°C 59.8°F15.4°C 98% 6.9 mph SW11.1 kmh SW 11.5 mph18.5 kmh 29.59 in1002.0 mb - 0.00 in0.0 mm 0.01 in0.3 mm
01:10 AM 60.3°F15.7°C 59.7°F15.4°C 98% 8.1 mph SSW13.0 kmh SSW 11.5 mph18.5 kmh 29.59 in1002.0 mb - 0.00 in0.0 mm 0.01 in0.3 mm
01:20 AM 60.2°F15.7°C 59.6°F15.3°C 98% 6.9 mph SW11.1 kmh SW 10.4 mph16.7 kmh 29.59 in1002.0 mb - 0.00 in0.0 mm 0.01 in0.3 mm
01:30 AM 60.2°F15.7°C 59.6°F15.3°C 98% 4.6 mph SW7.4 kmh SW 9.2 mph14.8 kmh 29.60 in1002.4 mb - 0.00 in0.0 mm 0.01 in0.3 mm
01:40 AM 60.1°F15.6°C 59.6°F15.3°C 98% 6.9 mph SW11.1 kmh SW 12.7 mph20.4 kmh 29.60 in1002.4 mb - 0.00 in0.0 mm 0.01 in0.3 mm
01:50 AM 60.0°F15.6°C 59.4°F15.2°C 98% 9.2 mph SW14.8 kmh SW 15.0 mph24.1 kmh 29.59 in1002.0 mb - 0.00 in0.0 mm 0.01 in0.3 mm
02:00 AM 59.7°F15.4°C 59.1°F15.1°C 98% 2.3 mph SW3.7 kmh SW 4.6 mph7.4 kmh 29.60 in1002.4 mb - 0.00 in0.0 mm 0.01 in0.3 mm
02:10 AM 59.6°F15.3°C 59.0°F15.0°C 98% 4.6 mph SW7.4 kmh SW 10.4 mph16.7 kmh 29.59 in1002.0 mb - 0.00 in0.0 mm 0.01 in0.3 mm
02:20 AM 59.4°F15.2°C 58.8°F14.9°C 98% 1.2 mph SW1.9 kmh SW 10.4 mph16.7 kmh 29.59 in1002.0 mb - 0.00 in0.0 mm 0.01 in0.3 mm
02:30 AM 59.5°F15.3°C 58.9°F14.9°C 98% 5.8 mph SW9.3 kmh SW 11.5 mph18.5 kmh 29.59 in1002.0 mb - 0.00 in0.0 mm 0.01 in0.3 mm
02:40 AM 59.7°F15.4°C 58.9°F14.9°C 97% 1.2 mph SW1.9 kmh SW 5.8 mph9.3 kmh 29.59 in1002.0 mb - 0.00 in0.0 mm 0.01 in0.3 mm
02:50 AM 59.4°F15.2°C 58.6°F14.8°C 97% 10.4 mph SW16.7 kmh SW 11.5 mph18.5 kmh 29.59 in1002.0 mb - 0.00 in0.0 mm 0.01 in0.3 mm
03:00 AM 59.4°F15.2°C 58.5°F14.7°C 97% 5.8 mph SW9.3 kmh SW 11.5 mph18.5 kmh 29.59 in1002.0 mb - 0.00 in0.0 mm 0.01 in0.3 mm
03:10 AM 59.5°F15.3°C 58.6°F14.8°C 97% Calm Calm -- 29.59 in1002.0 mb - 0.00 in0.0 mm 0.01 in0.3 mm
03:20 AM 58.9°F14.9°C 58.1°F14.5°C 97% 12.7 mph SW20.4 kmh SW 15.0 mph24.1 kmh 29.58 in1001.7 mb - 0.00 in0.0 mm 0.01 in0.3 mm
03:30 AM 58.8°F14.9°C 58.0°F14.4°C 97% 6.9 mph SSW11.1 kmh SSW 15.0 mph24.1 kmh 29.58 in1001.7 mb - 0.00 in0.0 mm 0.01 in0.3 mm
03:40 AM 58.8°F14.9°C 58.2°F14.6°C 98% 8.1 mph SSW13.0 kmh SSW 11.5 mph18.5 kmh 29.58 in1001.7 mb - 0.00 in0.0 mm 0.01 in0.3 mm
03:50 AM 59.0°F15.0°C 58.2°F14.6°C 97% 9.2 mph SSW14.8 kmh SSW 11.5 mph18.5 kmh 29.58 in1001.7 mb - 0.00 in0.0 mm 0.01 in0.3 mm
04:00 AM 59.1°F15.1°C 58.3°F14.6°C 97% Calm Calm -- 29.58 in1001.7 mb - 0.00 in0.0 mm 0.01 in0.3 mm
04:10 AM 59.2°F15.1°C 58.3°F14.6°C 97% 1.2 mph SW1.9 kmh SW 2.3 mph3.7 kmh 29.58 in1001.7 mb - 0.00 in0.0 mm 0.01 in0.3 mm
04:20 AM 58.9°F14.9°C 58.3°F14.6°C 98% Calm Calm -- 29.58 in1001.7 mb - 0.00 in0.0 mm 0.01 in0.3 mm
04:30 AM 59.0°F15.0°C 58.4°F14.7°C 98% Calm Calm -- 29.58 in1001.7 mb - 0.00 in0.0 mm 0.01 in0.3 mm
04:40 AM 59.0°F15.0°C 58.4°F14.7°C 98% Calm Calm -- 29.58 in1001.7 mb - 0.00 in0.0 mm 0.01 in0.3 mm
04:50 AM 58.9°F14.9°C 58.3°F14.6°C 98% Calm Calm -- 29.59 in1002.0 mb - 0.00 in0.0 mm 0.01 in0.3 mm
05:00 AM 58.5°F14.7°C 57.6°F14.2°C 97% 1.2 mph SW1.9 kmh SW 2.3 mph3.7 kmh 29.59 in1002.0 mb - 0.00 in0.0 mm 0.01 in0.3 mm
05:10 AM 58.2°F14.6°C 57.4°F14.1°C 97% Calm Calm 6.9 mph11.1 kmh 29.58 in1001.7 mb - 0.00 in0.0 mm 0.01 in0.3 mm
05:20 AM 57.9°F14.4°C 57.1°F13.9°C 97% Calm Calm -- 29.59 in1002.0 mb - 0.00 in0.0 mm 0.01 in0.3 mm
05:30 AM 57.5°F14.2°C 56.4°F13.6°C 96% Calm Calm -- 29.59 in1002.0 mb - 0.00 in0.0 mm 0.01 in0.3 mm
05:40 AM 57.1°F13.9°C 56.0°F13.3°C 96% Calm Calm -- 29.59 in1002.0 mb - 0.00 in0.0 mm 0.01 in0.3 mm
05:50 AM 56.8°F13.8°C 55.7°F13.2°C 96% Calm Calm -- 29.59 in1002.0 mb - 0.00 in0.0 mm 0.01 in0.3 mm
06:00 AM 56.8°F13.8°C 55.4°F13.0°C 95% Calm Calm -- 29.59 in1002.0 mb - 0.00 in0.0 mm 0.01 in0.3 mm
06:10 AM 56.8°F13.8°C 55.4°F13.0°C 95% Calm Calm -- 29.58 in1001.7 mb - 0.00 in0.0 mm 0.01 in0.3 mm
06:20 AM 56.7°F13.7°C 55.3°F12.9°C 95% Calm Calm -- 29.58 in1001.7 mb - 0.00 in0.0 mm 0.01 in0.3 mm
06:30 AM 56.7°F13.7°C 55.0°F12.8°C 94% Calm Calm -- 29.59 in1002.0 mb - 0.00 in0.0 mm 0.01 in0.3 mm
06:40 AM 56.8°F13.8°C 55.1°F12.8°C 94% Calm Calm -- 29.59 in1002.0 mb - 0.00 in0.0 mm 0.01 in0.3 mm
06:50 AM 56.7°F13.7°C 55.0°F12.8°C 94% Calm Calm -- 29.59 in1002.0 mb - 0.00 in0.0 mm 0.01 in0.3 mm
07:00 AM 56.4°F13.6°C 54.7°F12.6°C 94% Calm Calm -- 29.59 in1002.0 mb - 0.00 in0.0 mm 0.01 in0.3 mm
07:10 AM 56.3°F13.5°C 54.6°F12.6°C 94% Calm Calm -- 29.59 in1002.0 mb - 0.00 in0.0 mm 0.01 in0.3 mm
07:20 AM 56.6°F13.7°C 55.1°F12.8°C 95% Calm Calm -- 29.59 in1002.0 mb - 0.01 in0.3 mm 0.02 in0.5 mm
07:30 AM 57.0°F13.9°C 55.6°F13.1°C 95% Calm Calm -- 29.60 in1002.4 mb - 0.00 in0.0 mm 0.02 in0.5 mm
07:40 AM 57.1°F13.9°C 55.7°F13.2°C 95% Calm Calm -- 29.60 in1002.4 mb - 0.00 in0.0 mm 0.02 in0.5 mm
07:50 AM 57.4°F14.1°C 56.0°F13.3°C 95% Calm Calm -- 29.60 in1002.4 mb - 0.00 in0.0 mm 0.02 in0.5 mm
08:00 AM 57.6°F14.2°C 56.2°F13.4°C 95% Calm Calm -- 29.60 in1002.4 mb - 0.00 in0.0 mm 0.02 in0.5 mm
08:10 AM 57.9°F14.4°C 56.8°F13.8°C 96% Calm Calm 4.6 mph7.4 kmh 29.60 in1002.4 mb - 0.00 in0.0 mm 0.02 in0.5 mm
08:20 AM 58.4°F14.7°C 57.3°F14.1°C 96% Calm Calm 4.6 mph7.4 kmh 29.61 in1002.7 mb - 0.00 in0.0 mm 0.02 in0.5 mm
08:30 AM 59.0°F15.0°C 57.9°F14.4°C 96% 1.2 mph WNW1.9 kmh WNW 5.8 mph9.3 kmh 29.61 in1002.7 mb - 0.00 in0.0 mm 0.02 in0.5 mm
08:40 AM 59.9°F15.5°C 58.7°F14.8°C 96% 3.5 mph W5.6 kmh W 5.8 mph9.3 kmh 29.61 in1002.7 mb - 0.00 in0.0 mm 0.02 in0.5 mm
08:50 AM 60.4°F15.8°C 59.2°F15.1°C 96% 1.2 mph WSW1.9 kmh WSW 4.6 mph7.4 kmh 29.61 in1002.7 mb - 0.00 in0.0 mm 0.02 in0.5 mm
09:00 AM 60.9°F16.1°C 59.5°F15.3°C 95% 4.6 mph NW7.4 kmh NW 9.2 mph14.8 kmh 29.61 in1002.7 mb - 0.00 in0.0 mm 0.02 in0.5 mm
09:10 AM 61.7°F16.5°C 60.2°F15.7°C 95% Calm Calm 2.3 mph3.7 kmh 29.61 in1002.7 mb - 0.00 in0.0 mm 0.02 in0.5 mm
09:20 AM 62.3°F16.8°C 60.6°F15.9°C 94% 6.9 mph W11.1 kmh W 10.4 mph16.7 kmh 29.61 in1002.7 mb - 0.00 in0.0 mm 0.02 in0.5 mm
09:30 AM 63.1°F17.3°C 61.0°F16.1°C 93% 9.2 mph WNW14.8 kmh WNW 11.5 mph18.5 kmh 29.61 in1002.7 mb - 0.00 in0.0 mm 0.02 in0.5 mm
09:40 AM 63.8°F17.7°C 61.4°F16.3°C 92% 6.9 mph WNW11.1 kmh WNW 10.4 mph16.7 kmh 29.61 in1002.7 mb - 0.00 in0.0 mm 0.02 in0.5 mm
09:50 AM 64.6°F18.1°C 61.9°F16.6°C 91% 2.3 mph WSW3.7 kmh WSW 8.1 mph13.0 kmh 29.60 in1002.4 mb - 0.00 in0.0 mm 0.02 in0.5 mm
10:00 AM 64.0°F17.8°C 61.0°F16.1°C 90% 3.5 mph WSW5.6 kmh WSW 10.4 mph16.7 kmh 29.60 in1002.4 mb - 0.00 in0.0 mm 0.02 in0.5 mm
10:10 AM 64.5°F18.1°C 61.5°F16.4°C 90% 6.9 mph W11.1 kmh W 10.4 mph16.7 kmh 29.60 in1002.4 mb - 0.00 in0.0 mm 0.02 in0.5 mm
10:20 AM 65.0°F18.3°C 62.3°F16.8°C 91% 5.8 mph W9.3 kmh W 9.2 mph14.8 kmh 29.60 in1002.4 mb - 0.00 in0.0 mm 0.02 in0.5 mm
10:30 AM 64.5°F18.1°C 61.5°F16.4°C 90% 2.3 mph SW3.7 kmh SW 3.5 mph5.6 kmh 29.60 in1002.4 mb - 0.00 in0.0 mm 0.02 in0.5 mm
10:40 AM 64.5°F18.1°C 61.8°F16.6°C 91% 2.3 mph WSW3.7 kmh WSW 3.5 mph5.6 kmh 29.60 in1002.4 mb - 0.00 in0.0 mm 0.02 in0.5 mm
10:50 AM 64.7°F18.2°C 62.0°F16.7°C 91% Calm Calm -- 29.61 in1002.7 mb - 0.00 in0.0 mm 0.02 in0.5 mm
11:00 AM 64.8°F18.2°C 61.8°F16.6°C 90% Calm Calm 10.4 mph16.7 kmh 29.60 in1002.4 mb - 0.00 in0.0 mm 0.02 in0.5 mm
11:20 AM 63.3°F17.4°C 60.6°F15.9°C 91% 3.5 mph WSW5.6 kmh WSW 1.2 mph1.9 kmh 29.60 in1002.4 mb - 0.00 in0.0 mm 0.02 in0.5 mm
11:30 AM 63.3°F17.4°C 60.9°F16.1°C 92% 5.8 mph SW9.3 kmh SW 8.1 mph13.0 kmh 29.60 in1002.4 mb - 0.00 in0.0 mm 0.02 in0.5 mm
11:40 AM 64.0°F17.8°C 61.6°F16.4°C 92% Calm Calm 3.5 mph5.6 kmh 29.60 in1002.4 mb - 0.00 in0.0 mm 0.02 in0.5 mm
11:50 AM 63.9°F17.7°C 60.9°F16.1°C 90% 4.6 mph SW7.4 kmh SW 3.5 mph5.6 kmh 29.59 in1002.0 mb - 0.00 in0.0 mm 0.02 in0.5 mm
12:00 PM 65.0°F18.3°C 62.3°F16.8°C 91% 5.8 mph SW9.3 kmh SW 11.5 mph18.5 kmh 29.59 in1002.0 mb - 0.00 in0.0 mm 0.02 in0.5 mm
12:10 PM 65.7°F18.7°C 62.3°F16.8°C 89% Calm Calm -- 29.59 in1002.0 mb - 0.00 in0.0 mm 0.02 in0.5 mm
12:20 PM 65.8°F18.8°C 61.8°F16.6°C 87% Calm Calm 1.2 mph1.9 kmh 29.59 in1002.0 mb - 0.00 in0.0 mm 0.02 in0.5 mm
12:30 PM 65.7°F18.7°C 61.7°F16.5°C 87% 2.3 mph SW3.7 kmh SW 4.6 mph7.4 kmh 29.58 in1001.7 mb - 0.00 in0.0 mm 0.02 in0.5 mm
12:40 PM 66.1°F18.9°C 62.7°F17.1°C 89% Calm Calm 8.1 mph13.0 kmh 29.58 in1001.7 mb - 0.00 in0.0 mm 0.02 in0.5 mm
12:50 PM 66.8°F19.3°C 62.8°F17.1°C 87% 5.8 mph WNW9.3 kmh WNW 11.5 mph18.5 kmh 29.58 in1001.7 mb - 0.00 in0.0 mm 0.02 in0.5 mm
01:00 PM 67.1°F19.5°C 62.8°F17.1°C 86% 1.2 mph WSW1.9 kmh WSW 5.8 mph9.3 kmh 29.57 in1001.4 mb - 0.00 in0.0 mm 0.02 in0.5 mm
01:10 PM 67.1°F19.5°C 62.8°F17.1°C 86% 9.2 mph WNW14.8 kmh WNW 10.4 mph16.7 kmh 29.57 in1001.4 mb - 0.00 in0.0 mm 0.02 in0.5 mm
01:20 PM 66.9°F19.4°C 62.9°F17.2°C 87% 4.6 mph WSW7.4 kmh WSW 11.5 mph18.5 kmh 29.58 in1001.7 mb - 0.00 in0.0 mm 0.02 in0.5 mm
01:30 PM 66.0°F18.9°C 62.0°F16.7°C 87% 5.8 mph SW9.3 kmh SW 8.1 mph13.0 kmh 29.57 in1001.4 mb - 0.00 in0.0 mm 0.02 in0.5 mm
01:40 PM 64.9°F18.3°C 61.6°F16.4°C 89% 6.9 mph SW11.1 kmh SW 11.5 mph18.5 kmh 29.57 in1001.4 mb - 0.00 in0.0 mm 0.02 in0.5 mm
01:50 PM 64.7°F18.2°C 62.0°F16.7°C 91% Calm Calm -- 29.57 in1001.4 mb - 0.00 in0.0 mm 0.02 in0.5 mm
02:00 PM 65.0°F18.3°C 62.0°F16.7°C 90% 1.2 mph SW1.9 kmh SW 5.8 mph9.3 kmh 29.57 in1001.4 mb - 0.00 in0.0 mm 0.02 in0.5 mm
02:10 PM 65.2°F18.4°C 62.5°F16.9°C 91% Calm Calm 2.3 mph3.7 kmh 29.57 in1001.4 mb - 0.00 in0.0 mm 0.02 in0.5 mm
02:20 PM 65.2°F18.4°C 62.2°F16.8°C 90% 6.9 mph SW11.1 kmh SW 12.7 mph20.4 kmh 29.57 in1001.4 mb - 0.00 in0.0 mm 0.02 in0.5 mm
02:30 PM 65.2°F18.4°C 62.2°F16.8°C 90% Calm Calm -- 29.57 in1001.4 mb - 0.00 in0.0 mm 0.02 in0.5 mm
02:40 PM 65.6°F18.7°C 61.9°F16.6°C 88% 4.6 mph WSW7.4 kmh WSW 5.8 mph9.3 kmh 29.57 in1001.4 mb - 0.00 in0.0 mm 0.02 in0.5 mm
02:50 PM 65.6°F18.7°C 62.0°F16.7°C 88% 4.6 mph WSW7.4 kmh WSW 5.8 mph9.3 kmh 29.57 in1001.4 mb - 0.00 in0.0 mm 0.02 in0.5 mm
03:00 PM 65.2°F18.4°C 61.9°F16.6°C 89% 8.1 mph SW13.0 kmh SW 12.7 mph20.4 kmh 29.57 in1001.4 mb - 0.00 in0.0 mm 0.02 in0.5 mm
03:10 PM 65.0°F18.3°C 61.3°F16.3°C 88% 4.6 mph SW7.4 kmh SW 11.5 mph18.5 kmh 29.58 in1001.7 mb - 0.00 in0.0 mm 0.02 in0.5 mm
03:20 PM 65.1°F18.4°C 61.8°F16.6°C 89% 8.1 mph SW13.0 kmh SW 12.7 mph20.4 kmh 29.58 in1001.7 mb - 0.00 in0.0 mm 0.02 in0.5 mm
03:30 PM 64.9°F18.3°C 61.6°F16.4°C 89% 11.5 mph SW18.5 kmh SW 13.8 mph22.2 kmh 29.58 in1001.7 mb - 0.00 in0.0 mm 0.02 in0.5 mm
03:40 PM 64.4°F18.0°C 61.4°F16.3°C 90% 9.2 mph SW14.8 kmh SW 15.0 mph24.1 kmh 29.58 in1001.7 mb - 0.00 in0.0 mm 0.02 in0.5 mm
03:50 PM 64.2°F17.9°C 61.5°F16.4°C 91% 9.2 mph SW14.8 kmh SW 12.7 mph20.4 kmh 29.58 in1001.7 mb - 0.00 in0.0 mm 0.02 in0.5 mm
04:00 PM 63.7°F17.6°C 61.0°F16.1°C 91% 8.1 mph SW13.0 kmh SW 12.7 mph20.4 kmh 29.59 in1002.0 mb - 0.00 in0.0 mm 0.02 in0.5 mm
04:10 PM 63.6°F17.6°C 61.2°F16.2°C 92% 6.9 mph S11.1 kmh S 12.7 mph20.4 kmh 29.59 in1002.0 mb - 0.00 in0.0 mm 0.02 in0.5 mm
04:20 PM 63.5°F17.5°C 61.1°F16.2°C 92% 10.4 mph SW16.7 kmh SW 12.7 mph20.4 kmh 29.59 in1002.0 mb - 0.00 in0.0 mm 0.02 in0.5 mm
04:30 PM 63.3°F17.4°C 60.9°F16.1°C 92% 6.9 mph SW11.1 kmh SW 10.4 mph16.7 kmh 29.59 in1002.0 mb - 0.00 in0.0 mm 0.02 in0.5 mm
04:40 PM 63.1°F17.3°C 60.8°F16.0°C 92% 5.8 mph SW9.3 kmh SW 11.5 mph18.5 kmh 29.59 in1002.0 mb - 0.00 in0.0 mm 0.02 in0.5 mm
04:50 PM 63.0°F17.2°C 60.6°F15.9°C 92% 1.2 mph WSW1.9 kmh WSW -- 29.60 in1002.4 mb - 0.00 in0.0 mm 0.02 in0.5 mm
05:00 PM 62.7°F17.1°C 60.3°F15.7°C 92% 9.2 mph SW14.8 kmh SW 11.5 mph18.5 kmh 29.60 in1002.4 mb - 0.00 in0.0 mm 0.02 in0.5 mm
05:10 PM 62.4°F16.9°C 60.1°F15.6°C 92% 8.1 mph SW13.0 kmh SW 11.5 mph18.5 kmh 29.60 in1002.4 mb - 0.00 in0.0 mm 0.02 in0.5 mm
05:20 PM 62.2°F16.8°C 59.8°F15.4°C 92% 11.5 mph SW18.5 kmh SW 12.7 mph20.4 kmh 29.60 in1002.4 mb - 0.00 in0.0 mm 0.02 in0.5 mm
05:30 PM 62.1°F16.7°C 60.1°F15.6°C 93% 8.1 mph SW13.0 kmh SW 11.5 mph18.5 kmh 29.60 in1002.4 mb - 0.00 in0.0 mm 0.02 in0.5 mm
05:40 PM 62.0°F16.7°C 60.0°F15.6°C 93% 9.2 mph SW14.8 kmh SW 12.7 mph20.4 kmh 29.60 in1002.4 mb - 0.00 in0.0 mm 0.02 in0.5 mm
05:50 PM 61.8°F16.6°C 60.1°F15.6°C 94% 9.2 mph SW14.8 kmh SW 11.5 mph18.5 kmh 29.61 in1002.7 mb - 0.00 in0.0 mm 0.02 in0.5 mm
06:00 PM 61.7°F16.5°C 60.0°F15.6°C 94% 9.2 mph SW14.8 kmh SW 11.5 mph18.5 kmh 29.61 in1002.7 mb - 0.00 in0.0 mm 0.02 in0.5 mm
06:10 PM 61.6°F16.4°C 59.9°F15.5°C 94% 10.4 mph SW16.7 kmh SW 13.8 mph22.2 kmh 29.61 in1002.7 mb - 0.00 in0.0 mm 0.02 in0.5 mm
06:20 PM 61.6°F16.4°C 59.9°F15.5°C 94% 3.5 mph SW5.6 kmh SW 11.5 mph18.5 kmh 29.62 in1003.0 mb - 0.00 in0.0 mm 0.02 in0.5 mm
06:30 PM 61.5°F16.4°C 59.4°F15.2°C 93% 6.9 mph SW11.1 kmh SW 10.4 mph16.7 kmh 29.62 in1003.0 mb - 0.00 in0.0 mm 0.02 in0.5 mm
06:40 PM 61.2°F16.2°C 59.1°F15.1°C 93% 9.2 mph SW14.8 kmh SW 11.5 mph18.5 kmh 29.62 in1003.0 mb - 0.00 in0.0 mm 0.02 in0.5 mm
06:50 PM 61.0°F16.1°C 58.7°F14.8°C 92% 10.4 mph SSW16.7 kmh SSW 12.7 mph20.4 kmh 29.63 in1003.4 mb - 0.00 in0.0 mm 0.02 in0.5 mm
07:00 PM 60.8°F16.0°C 58.5°F14.7°C 92% 9.2 mph SW14.8 kmh SW 11.5 mph18.5 kmh 29.63 in1003.4 mb - 0.00 in0.0 mm 0.02 in0.5 mm
07:10 PM 60.8°F16.0°C 58.4°F14.7°C 92% 5.8 mph SW9.3 kmh SW 11.5 mph18.5 kmh 29.63 in1003.4 mb - 0.00 in0.0 mm 0.02 in0.5 mm
07:20 PM 60.7°F15.9°C 58.7°F14.8°C 93% 10.4 mph SW16.7 kmh SW 11.5 mph18.5 kmh 29.64 in1003.7 mb - 0.00 in0.0 mm 0.02 in0.5 mm
07:30 PM 60.6°F15.9°C 58.6°F14.8°C 93% 10.4 mph SW16.7 kmh SW 12.7 mph20.4 kmh 29.64 in1003.7 mb - 0.00 in0.0 mm 0.02 in0.5 mm
07:40 PM 60.5°F15.8°C 58.5°F14.7°C 93% 8.1 mph SW13.0 kmh SW 10.4 mph16.7 kmh 29.64 in1003.7 mb - 0.00 in0.0 mm 0.02 in0.5 mm
07:50 PM 60.4°F15.8°C 58.3°F14.6°C 93% 4.6 mph SW7.4 kmh SW 9.2 mph14.8 kmh 29.64 in1003.7 mb - 0.00 in0.0 mm 0.02 in0.5 mm
08:00 PM 60.3°F15.7°C 58.2°F14.6°C 93% 9.2 mph SW14.8 kmh SW 10.4 mph16.7 kmh 29.65 in1004.1 mb - 0.00 in0.0 mm 0.02 in0.5 mm
08:10 PM 60.2°F15.7°C 58.2°F14.6°C 93% 8.1 mph SW13.0 kmh SW 10.4 mph16.7 kmh 29.65 in1004.1 mb - 0.00 in0.0 mm 0.02 in0.5 mm
08:20 PM 60.3°F15.7°C 58.2°F14.6°C 93% 10.4 mph SW16.7 kmh SW 12.7 mph20.4 kmh 29.65 in1004.1 mb - 0.00 in0.0 mm 0.02 in0.5 mm
08:30 PM 60.6°F15.9°C 58.5°F14.7°C 93% 12.7 mph SW20.4 kmh SW 13.8 mph22.2 kmh 29.65 in1004.1 mb - 0.00 in0.0 mm 0.02 in0.5 mm
08:40 PM 60.4°F15.8°C 58.0°F14.4°C 92% 10.4 mph SW16.7 kmh SW 13.8 mph22.2 kmh 29.65 in1004.1 mb - 0.00 in0.0 mm 0.02 in0.5 mm
08:50 PM 60.1°F15.6°C 57.8°F14.3°C 92% 11.5 mph SW18.5 kmh SW 12.7 mph20.4 kmh 29.65 in1004.1 mb - 0.00 in0.0 mm 0.02 in0.5 mm
09:00 PM 60.0°F15.6°C 57.7°F14.3°C 92% 9.2 mph SW14.8 kmh SW 13.8 mph22.2 kmh 29.66 in1004.4 mb - 0.00 in0.0 mm 0.02 in0.5 mm
09:10 PM 60.3°F15.7°C 57.9°F14.4°C 92% 9.2 mph SW14.8 kmh SW 12.7 mph20.4 kmh 29.66 in1004.4 mb - 0.00 in0.0 mm 0.02 in0.5 mm
09:20 PM 60.4°F15.8°C 58.4°F14.7°C 93% 13.8 mph SW22.2 kmh SW 18.4 mph29.6 kmh 29.66 in1004.4 mb - 0.00 in0.0 mm 0.02 in0.5 mm
09:30 PM 60.8°F16.0°C 58.5°F14.7°C 92% 12.7 mph SW20.4 kmh SW 15.0 mph24.1 kmh 29.67 in1004.7 mb - 0.00 in0.0 mm 0.02 in0.5 mm
09:40 PM 60.8°F16.0°C 58.5°F14.7°C 92% 12.7 mph SSW20.4 kmh SSW 15.0 mph24.1 kmh 29.67 in1004.7 mb - 0.00 in0.0 mm 0.02 in0.5 mm
09:50 PM 60.9°F16.1°C 58.3°F14.6°C 91% 10.4 mph SW16.7 kmh SW 16.1 mph25.9 kmh 29.67 in1004.7 mb - 0.00 in0.0 mm 0.02 in0.5 mm
10:00 PM 61.0°F16.1°C 58.4°F14.7°C 91% 9.2 mph SW14.8 kmh SW 12.7 mph20.4 kmh 29.68 in1005.1 mb - 0.00 in0.0 mm 0.02 in0.5 mm
10:10 PM 61.0°F16.1°C 58.7°F14.8°C 92% 9.2 mph SW14.8 kmh SW 12.7 mph20.4 kmh 29.68 in1005.1 mb - 0.00 in0.0 mm 0.02 in0.5 mm
10:20 PM 60.9°F16.1°C 58.5°F14.7°C 92% 12.7 mph SW20.4 kmh SW 16.1 mph25.9 kmh 29.68 in1005.1 mb - 0.00 in0.0 mm 0.02 in0.5 mm
10:30 PM 60.9°F16.1°C 58.3°F14.6°C 91% 9.2 mph SW14.8 kmh SW 11.5 mph18.5 kmh 29.68 in1005.1 mb - 0.00 in0.0 mm 0.02 in0.5 mm
10:40 PM 61.0°F16.1°C 58.3°F14.6°C 91% 8.1 mph SSW13.0 kmh SSW 16.1 mph25.9 kmh 29.69 in1005.4 mb - 0.00 in0.0 mm 0.02 in0.5 mm
10:50 PM 61.0°F16.1°C 58.4°F14.7°C 91% 10.4 mph SSW16.7 kmh SSW 13.8 mph22.2 kmh 29.69 in1005.4 mb - 0.00 in0.0 mm 0.02 in0.5 mm
11:00 PM 61.0°F16.1°C 58.0°F14.4°C 90% 8.1 mph SSW13.0 kmh SSW 11.5 mph18.5 kmh 29.69 in1005.4 mb - 0.00 in0.0 mm 0.02 in0.5 mm
11:10 PM 61.1°F16.2°C 58.2°F14.6°C 90% 10.4 mph SW16.7 kmh SW 12.7 mph20.4 kmh 29.69 in1005.4 mb - 0.00 in0.0 mm 0.02 in0.5 mm
11:20 PM 61.2°F16.2°C 58.2°F14.6°C 90% 9.2 mph SW14.8 kmh SW 11.5 mph18.5 kmh 29.69 in1005.4 mb - 0.00 in0.0 mm 0.02 in0.5 mm
11:30 PM 61.2°F16.2°C 58.2°F14.6°C 90% 10.4 mph SW16.7 kmh SW 13.8 mph22.2 kmh 29.69 in1005.4 mb - 0.00 in0.0 mm 0.02 in0.5 mm
11:40 PM 61.2°F16.2°C 58.2°F14.6°C 90% 5.8 mph SSW9.3 kmh SSW 10.4 mph16.7 kmh 29.69 in1005.4 mb - 0.00 in0.0 mm 0.02 in0.5 mm
11:50 PM 61.3°F16.3°C 58.3°F14.6°C 90% 8.1 mph SW13.0 kmh SW 10.4 mph16.7 kmh 29.69 in1005.4 mb - 0.00 in0.0 mm 0.02 in0.5 mm